sensor_id;sensor_type;location;lat;lon;timestamp;pressure;altitude;pressure_sealevel;temperature;humidity
31162;BME280;17796;49.296;-117.656;2023-03-31T00:14:25;94900;;;15.53152;19.70628
31162;BME280;17796;49.296;-117.656;2023-03-31T00:29:29;94900;;;14.98459;20.48426
31162;BME280;17796;49.296;-117.656;2023-03-31T00:44:34;94900;;;14.55867;21.03683
31162;BME280;17796;49.296;-117.656;2023-03-31T00:59:42;94900;;;11.43753;24.29489
31162;BME280;17796;49.296;-117.656;2023-03-31T01:14:49;94900;;;10.8128;27.34632
31162;BME280;17796;49.296;-117.656;2023-03-31T01:30:00;94900;;;8.46767;28.87639
31162;BME280;17796;49.296;-117.656;2023-03-31T01:45:26;94900;;;8.33746;29.21815
31162;BME280;17796;49.296;-117.656;2023-03-31T02:00:39;94900;;;8.3419;28.8848
31162;BME280;17796;49.296;-117.656;2023-03-31T02:15:46;94900;;;7.82518;29.71405
31162;BME280;17796;49.296;-117.656;2023-03-31T02:30:57;95000;;;7.38151;29.14239
31162;BME280;17796;49.296;-117.656;2023-03-31T02:46:11;95000;;;6.49766;31.96608
31162;BME280;17796;49.296;-117.656;2023-03-31T03:01:18;95000;;;7.11378;34.5
31162;BME280;17796;49.296;-117.656;2023-03-31T03:16:35;95000;;;6.08036;35.29386
31162;BME280;17796;49.296;-117.656;2023-03-31T03:31:42;95100;;;6.90608;33.73726
31162;BME280;17796;49.296;-117.656;2023-03-31T03:46:46;95100;;;6.04542;36.03988
31162;BME280;17796;49.296;-117.656;2023-03-31T04:01:50;95100;;;5.94221;35.87217
31162;BME280;17796;49.296;-117.656;2023-03-31T04:16:53;95100;;;4.11041;39.0105
31162;BME280;17796;49.296;-117.656;2023-03-31T04:31:57;95100;;;4.91864;38.19707
31162;BME280;17796;49.296;-117.656;2023-03-31T04:47:01;95200;;;4.27142;39.30111
31162;BME280;17796;49.296;-117.656;2023-03-31T05:02:05;95200;;;4.10501;39.64062
31162;BME280;17796;49.296;-117.656;2023-03-31T05:17:09;95200;;;3.98846;40.15845
31162;BME280;17796;49.296;-117.656;2023-03-31T05:32:12;95200;;;2.53905;44.2131
31162;BME280;17796;49.296;-117.656;2023-03-31T05:47:16;95200;;;3.30853;42.69646
31162;BME280;17796;49.296;-117.656;2023-03-31T06:02:20;95300;;;2.28467;47.27947
31162;BME280;17796;49.296;-117.656;2023-03-31T06:17:23;95300;;;2.64639;47.58168
31162;BME280;17796;49.296;-117.656;2023-03-31T06:32:27;95300;;;2.69752;46.91748
31162;BME280;17796;49.296;-117.656;2023-03-31T06:47:30;95300;;;2.07381;51.34741
31162;BME280;17796;49.296;-117.656;2023-03-31T07:02:34;95300;;;2.1008;48.16106
31162;BME280;17796;49.296;-117.656;2023-03-31T07:17:37;95300;;;2.40249;47.76426
31162;BME280;17796;49.296;-117.656;2023-03-31T07:32:41;95400;;;2.5381;46.75316
31162;BME280;17796;49.296;-117.656;2023-03-31T07:47:47;95400;;;0.90325;59.42863
31162;BME280;17796;49.296;-117.656;2023-03-31T08:02:51;95400;;;1.67812;49.49948
31162;BME280;17796;49.296;-117.656;2023-03-31T08:17:54;95400;;;1.44597;50.75235
31162;BME280;17796;49.296;-117.656;2023-03-31T08:32:58;95400;;;1.31164;52.54764
31162;BME280;17796;49.296;-117.656;2023-03-31T08:48:02;95500;;;0.69588;50.98758
31162;BME280;17796;49.296;-117.656;2023-03-31T09:03:10;95500;;;0.96169;50.52729
31162;BME280;17796;49.296;-117.656;2023-03-31T09:18:26;95500;;;0.63523;50.29096
31162;BME280;17796;49.296;-117.656;2023-03-31T09:33:33;95500;;;0.60347;49.55113
31162;BME280;17796;49.296;-117.656;2023-03-31T09:48:38;95500;;;-0.28729;55.29244
31162;BME280;17796;49.296;-117.656;2023-03-31T10:03:46;95500;;;0.34879;54.67607
31162;BME280;17796;49.296;-117.656;2023-03-31T10:18:53;95500;;;-0.71568;56.47008
31162;BME280;17796;49.296;-117.656;2023-03-31T10:34:13;95500;;;-0.34699;58.84728
31162;BME280;17796;49.296;-117.656;2023-03-31T10:49:23;95500;;;0.24018;55.99163
31162;BME280;17796;49.296;-117.656;2023-03-31T11:04:36;95500;;;0.17794;57.33569
31162;BME280;17796;49.296;-117.656;2023-03-31T11:19:51;95500;;;-0.02372;57.40297
31162;BME280;17796;49.296;-117.656;2023-03-31T11:35:12;95600;;;-0.44671;65.84556
31162;BME280;17796;49.296;-117.656;2023-03-31T11:50:32;95600;;;-0.78554;64.36172
31162;BME280;17796;49.296;-117.656;2023-03-31T12:05:40;95600;;;0.01916;61.02914
31162;BME280;17796;49.296;-117.656;2023-03-31T12:20:49;95600;;;0.20556;60.43015
31162;BME280;17796;49.296;-117.656;2023-03-31T12:35:58;95600;;;0.09918;60.84153
31162;BME280;17796;49.296;-117.656;2023-03-31T12:51:17;95600;;;0.54631;59.98716
31162;BME280;17796;49.296;-117.656;2023-03-31T13:06:51;95700;;;0.21636;61.31478
31162;BME280;17796;49.296;-117.656;2023-03-31T13:21:57;95700;;;0.6076;61.05128
31162;BME280;17796;49.296;-117.656;2023-03-31T13:37:07;95700;;;0.36403;60.77943
31162;BME280;17796;49.296;-117.656;2023-03-31T13:52:20;95700;;;-0.72235;64.1414
31162;BME280;17796;49.296;-117.656;2023-03-31T14:07:37;95700;;;-0.35906;61.5396
31162;BME280;17796;49.296;-117.656;2023-03-31T14:22:47;95700;;;-0.77094;63.05448
31162;BME280;17796;49.296;-117.656;2023-03-31T14:37:59;95700;;;0.48915;60.59407
31162;BME280;17796;49.296;-117.656;2023-03-31T14:53:13;95700;;;0.46724;60.4555
31162;BME280;17796;49.296;-117.656;2023-03-31T15:08:18;95800;;;1.46535;57.90944
31162;BME280;17796;49.296;-117.656;2023-03-31T15:23:25;95800;;;2.03538;59.35509
31162;BME280;17796;49.296;-117.656;2023-03-31T15:38:29;95800;;;3.30662;56.6137
31162;BME280;17796;49.296;-117.656;2023-03-31T15:53:35;95800;;;2.82613;56.31571
31162;BME280;17796;49.296;-117.656;2023-03-31T16:08:45;95800;;;3.86651;53.14893
31162;BME280;17796;49.296;-117.656;2023-03-31T16:23:54;95800;;;5.87425;41.88698
31162;BME280;17796;49.296;-117.656;2023-03-31T16:39:00;95800;;;8.18311;38.14732
31162;BME280;17796;49.296;-117.656;2023-03-31T16:54:05;95800;;;7.6775;36.38091
31162;BME280;17796;49.296;-117.656;2023-03-31T17:09:09;95800;;;5.97301;38.69083
31162;BME280;17796;49.296;-117.656;2023-03-31T17:24:12;95800;;;5.76341;38.40491
31162;BME280;17796;49.296;-117.656;2023-03-31T17:39:17;95800;;;7.29608;34.52094
31162;BME280;17796;49.296;-117.656;2023-03-31T17:54:20;95900;;;6.72093;35.40772
31162;BME280;17796;49.296;-117.656;2023-03-31T18:09:24;95900;;;6.46209;36.63844
31162;BME280;17796;49.296;-117.656;2023-03-31T18:24:27;95900;;;7.27861;34.80798
31162;BME280;17796;49.296;-117.656;2023-03-31T18:39:31;95900;;;6.11148;36.60032
31162;BME280;17796;49.296;-117.656;2023-03-31T18:54:34;95900;;;6.93911;36.39526
31162;BME280;17796;49.296;-117.656;2023-03-31T19:09:38;95900;;;7.0817;35.4729
31162;BME280;17796;49.296;-117.656;2023-03-31T19:24:42;95900;;;6.8197;36.9461
31162;BME280;17796;49.296;-117.656;2023-03-31T19:39:46;95900;;;6.26519;37.31207
31162;BME280;17796;49.296;-117.656;2023-03-31T19:54:49;95900;;;7.20493;35.77576
31162;BME280;17796;49.296;-117.656;2023-03-31T20:09:53;95900;;;7.13506;35.56814
31162;BME280;17796;49.296;-117.656;2023-03-31T20:25:02;95900;;;6.60247;36.16643
31162;BME280;17796;49.296;-117.656;2023-03-31T20:40:06;95900;;;6.80191;35.56451
31162;BME280;17796;49.296;-117.656;2023-03-31T20:55:11;95900;;;6.67583;35.71688
31162;BME280;17796;49.296;-117.656;2023-03-31T21:10:15;95900;;;7.31545;36.79291
31162;BME280;17796;49.296;-117.656;2023-03-31T21:25:19;95900;;;6.98039;38.14201
31162;BME280;17796;49.296;-117.656;2023-03-31T21:40:23;95900;;;6.36777;38.76434
31162;BME280;17796;49.296;-117.656;2023-03-31T21:55:26;95900;;;6.26233;39.77857
31162;BME280;17796;49.296;-117.656;2023-03-31T22:10:30;95900;;;6.9064;38.60238
31162;BME280;17796;49.296;-117.656;2023-03-31T22:25:34;95900;;;6.26043;40.15962
31162;BME280;17796;49.296;-117.656;2023-03-31T22:40:37;95900;;;7.5962;37.88322
31162;BME280;17796;49.296;-117.656;2023-03-31T22:55:41;95900;;;6.04288;43.43303
31162;BME280;17796;49.296;-117.656;2023-03-31T23:10:53;95900;;;4.69475;48.1531
31162;BME280;17796;49.296;-117.656;2023-03-31T23:25:59;95900;;;6.06257;44.64159
31162;BME280;17796;49.296;-117.656;2023-03-31T23:41:03;95900;;;5.58429;46.32659
31162;BME280;17796;49.296;-117.656;2023-03-31T23:56:07;95900;;;5.24067;46.62114
